Time;durP1;ratioP1;P1;durP2;ratioP2;P2;SDS_P1;SDS_P2;PMS_P1;PMS_P2;Temp;Humidity;BMP_temperature;BMP_pressure;BME280_temperature;BME280_humidity;BME280_pressure;Samples;Min_cycle;Max_cycle;Signal;HPM_P1;HPM_P2
2023/08/18 00:00:29;;;;;;;0.30;0.03;;;16.30;99.90;;;;;;5075333;28;20043;-71
2023/08/18 00:02:55;;;;;;;0.00;0.00;;;16.30;99.90;;;;;;5072359;28;20400;-72
2023/08/18 00:05:21;;;;;;;0.30;0.10;;;16.30;99.90;;;;;;5071589;28;20036;-71
2023/08/18 00:07:47;;;;;;;0.82;0.15;;;16.30;99.90;;;;;;5074666;28;20102;-71
2023/08/18 00:10:13;;;;;;;0.57;0.10;;;16.30;99.90;;;;;;5074656;28;20041;-71
2023/08/18 00:12:38;;;;;;;1.20;0.00;;;16.30;99.90;;;;;;5069056;28;20036;-71
2023/08/18 00:15:05;;;;;;;0.40;0.13;;;16.30;99.90;;;;;;5071601;28;20474;-71
2023/08/18 00:17:30;;;;;;;0.15;0.05;;;16.30;99.90;;;;;;5072080;28;20040;-71
2023/08/18 00:19:56;;;;;;;0.00;0.00;;;16.30;99.90;;;;;;5065510;28;20033;-71
2023/08/18 00:22:22;;;;;;;0.17;0.08;;;16.30;99.90;;;;;;5068378;28;20048;-71
2023/08/18 00:24:48;;;;;;;0.35;0.08;;;16.20;99.90;;;;;;5073944;28;20049;-71
2023/08/18 00:27:13;;;;;;;0.05;0.00;;;16.30;99.90;;;;;;5054375;28;20045;-71
2023/08/18 00:29:39;;;;;;;0.30;0.20;;;16.20;99.90;;;;;;5073466;28;20044;-70
2023/08/18 00:32:05;;;;;;;0.47;0.10;;;16.30;99.90;;;;;;5071257;28;20076;-71
2023/08/18 00:34:31;;;;;;;0.08;0.00;;;16.20;99.90;;;;;;5073478;28;20033;-71
2023/08/18 00:36:57;;;;;;;0.40;0.10;;;16.20;99.90;;;;;;5072405;28;20117;-71
2023/08/18 00:39:23;;;;;;;0.43;0.10;;;16.20;99.90;;;;;;5073162;28;20037;-71
2023/08/18 00:41:48;;;;;;;0.20;0.10;;;16.20;99.90;;;;;;5100664;28;20052;-71
2023/08/18 00:44:14;;;;;;;0.25;0.00;;;16.20;99.90;;;;;;5078213;28;20051;-71
2023/08/18 00:46:42;;;;;;;0.35;0.10;;;16.20;99.90;;;;;;5073800;28;20067;-71
2023/08/18 00:49:09;;;;;;;0.20;0.13;;;16.20;99.90;;;;;;5076754;28;20048;-71
2023/08/18 00:51:38;;;;;;;5.07;0.30;;;16.10;99.90;;;;;;5075442;28;20036;-71
2023/08/18 00:54:05;;;;;;;0.20;0.10;;;16.10;99.90;;;;;;5076843;28;20144;-71
2023/08/18 00:56:31;;;;;;;0.10;0.00;;;16.10;99.90;;;;;;5075978;28;20036;-70
2023/08/18 00:58:57;;;;;;;0.00;0.00;;;16.10;99.90;;;;;;5073721;28;20094;-71
2023/08/18 01:01:24;;;;;;;0.38;0.10;;;16.10;99.90;;;;;;5073025;28;20040;-71
2023/08/18 01:03:51;;;;;;;2.13;0.20;;;16.10;99.90;;;;;;5069867;28;20040;-71
2023/08/18 01:06:16;;;;;;;0.10;0.10;;;16.10;99.90;;;;;;5072514;28;20041;-71
2023/08/18 01:08:42;;;;;;;0.13;0.00;;;16.10;99.90;;;;;;5072814;28;20035;-71
2023/08/18 01:11:23;;;;;;;0.05;0.05;;;16.10;99.90;;;;;;5071871;28;20472;-71
2023/08/18 01:14:11;;;;;;;0.60;0.20;;;16.10;99.90;;;;;;5069779;28;20036;-71
2023/08/18 01:16:42;;;;;;;0.30;0.20;;;16.10;99.90;;;;;;5071907;28;20148;-71
2023/08/18 01:19:10;;;;;;;2.63;0.10;;;16.10;99.90;;;;;;5069435;28;20044;-71
2023/08/18 01:21:41;;;;;;;0.28;0.10;;;16.10;99.90;;;;;;5073789;28;20040;-71
2023/08/18 01:24:06;;;;;;;0.17;0.10;;;16.10;99.90;;;;;;5074807;28;20056;-71
2023/08/18 01:26:32;;;;;;;0.15;0.10;;;16.10;99.90;;;;;;5098447;28;20036;-71
2023/08/18 01:28:58;;;;;;;0.40;0.20;;;16.10;99.90;;;;;;5075170;28;20086;-71
2023/08/18 01:31:30;;;;;;;0.10;0.05;;;16.10;99.90;;;;;;5074606;28;20397;-71
2023/08/18 01:34:09;;;;;;;0.20;0.10;;;16.10;99.90;;;;;;5075764;28;20036;-71
2023/08/18 01:36:39;;;;;;;0.38;0.17;;;16.10;99.90;;;;;;5070402;28;20062;-71
2023/08/18 01:39:07;;;;;;;0.00;0.00;;;16.10;99.90;;;;;;5077672;28;20041;-70
2023/08/18 01:41:34;;;;;;;0.35;0.15;;;16.10;99.90;;;;;;5076212;28;20065;-71
2023/08/18 01:44:00;;;;;;;0.70;0.28;;;16.10;99.90;;;;;;5073990;28;20036;-71
2023/08/18 01:46:26;;;;;;;0.32;0.10;;;16.10;99.90;;;;;;5078006;28;20041;-71
2023/08/18 01:48:52;;;;;;;0.17;0.10;;;16.10;99.90;;;;;;5071054;28;20037;-70
2023/08/18 01:51:18;;;;;;;0.10;0.10;;;16.20;99.90;;;;;;5077807;28;20032;-70
2023/08/18 01:53:43;;;;;;;0.00;0.00;;;16.20;99.90;;;;;;5072181;28;20054;-70
2023/08/18 01:56:09;;;;;;;0.20;0.10;;;16.10;99.90;;;;;;5072816;28;20048;-70
2023/08/18 01:58:36;;;;;;;0.77;0.25;;;16.10;99.90;;;;;;5077248;28;20044;-70
2023/08/18 02:01:02;;;;;;;0.28;0.00;;;16.10;99.90;;;;;;5071288;28;20040;-70
2023/08/18 02:03:28;;;;;;;3.22;0.45;;;16.10;99.90;;;;;;5070999;28;20055;-70
2023/08/18 02:05:56;;;;;;;0.22;0.00;;;16.10;99.90;;;;;;5071338;28;20049;-70
2023/08/18 02:08:23;;;;;;;1.35;0.25;;;16.10;99.90;;;;;;5072462;28;20385;-71
2023/08/18 02:10:49;;;;;;;0.20;0.17;;;16.10;99.90;;;;;;5071446;28;20045;-71
2023/08/18 02:13:14;;;;;;;0.55;0.22;;;16.10;99.90;;;;;;5074149;28;20044;-71
2023/08/18 02:15:40;;;;;;;0.03;0.03;;;16.10;99.90;;;;;;5054112;28;20096;-70
2023/08/18 02:18:06;;;;;;;2.70;0.32;;;16.00;99.90;;;;;;5071202;28;20083;-70
2023/08/18 02:20:32;;;;;;;0.13;0.05;;;16.00;99.90;;;;;;5070665;28;20435;-71
2023/08/18 02:22:58;;;;;;;0.30;0.10;;;16.00;99.90;;;;;;5073390;28;20101;-71
2023/08/18 02:25:24;;;;;;;0.45;0.20;;;16.00;99.90;;;;;;5058787;28;20044;-70
2023/08/18 02:27:49;;;;;;;0.20;0.10;;;16.00;99.90;;;;;;5075640;28;20036;-71
2023/08/18 02:30:16;;;;;;;1.10;0.10;;;16.10;99.90;;;;;;5073403;28;20205;-70
2023/08/18 02:32:42;;;;;;;0.00;0.00;;;16.00;99.90;;;;;;5051813;28;20058;-70
2023/08/18 02:35:08;;;;;;;0.77;0.20;;;16.10;99.90;;;;;;5074334;28;20048;-70
2023/08/18 02:37:34;;;;;;;0.55;0.25;;;16.00;99.90;;;;;;5069197;28;20040;-71
2023/08/18 02:39:59;;;;;;;0.65;0.17;;;16.00;99.90;;;;;;5071229;28;20051;-70
2023/08/18 02:42:25;;;;;;;0.50;0.20;;;16.00;99.90;;;;;;5066539;28;20064;-71
2023/08/18 02:44:51;;;;;;;0.98;0.47;;;16.00;99.90;;;;;;5073672;28;20056;-70
2023/08/18 02:47:18;;;;;;;0.40;0.20;;;16.00;99.90;;;;;;5069281;28;20064;-70
2023/08/18 02:49:46;;;;;;;0.90;0.30;;;16.00;99.90;;;;;;5072392;28;20068;-71
2023/08/18 02:52:12;;;;;;;0.25;0.20;;;15.90;99.90;;;;;;5070921;28;20040;-71
2023/08/18 02:54:38;;;;;;;0.88;0.22;;;16.00;99.90;;;;;;5065079;28;20059;-71
2023/08/18 02:57:03;;;;;;;0.30;0.00;;;16.00;99.90;;;;;;5071911;28;20037;-70
2023/08/18 02:59:29;;;;;;;0.10;0.05;;;16.00;99.90;;;;;;5071939;28;20101;-70
2023/08/18 03:01:55;;;;;;;0.10;0.00;;;16.00;99.90;;;;;;5071105;28;20040;-70
2023/08/18 03:04:20;;;;;;;0.95;0.20;;;16.00;99.90;;;;;;5076432;28;20048;-71
2023/08/18 03:06:46;;;;;;;0.75;0.43;;;16.00;99.90;;;;;;5073988;28;20067;-71
2023/08/18 03:09:12;;;;;;;0.60;0.35;;;16.00;99.90;;;;;;5067380;28;20048;-69
2023/08/18 03:11:37;;;;;;;0.10;0.10;;;16.00;99.90;;;;;;5073023;28;20039;-71
2023/08/18 03:14:05;;;;;;;0.52;0.20;;;16.00;99.90;;;;;;5070840;28;20185;-70
2023/08/18 03:16:31;;;;;;;0.52;0.25;;;16.00;99.90;;;;;;5071132;28;20048;-71
2023/08/18 03:18:57;;;;;;;1.55;0.25;;;16.00;99.90;;;;;;5072655;28;20041;-70
2023/08/18 03:21:22;;;;;;;0.45;0.10;;;16.00;99.90;;;;;;5068016;28;20738;-70
2023/08/18 03:23:48;;;;;;;1.40;0.75;;;16.00;99.90;;;;;;5069932;28;20043;-71
2023/08/18 03:26:14;;;;;;;0.20;0.10;;;16.00;99.90;;;;;;5073829;28;20071;-70
2023/08/18 03:28:39;;;;;;;1.77;0.10;;;16.00;99.90;;;;;;5074135;28;20043;-71
2023/08/18 03:31:06;;;;;;;0.22;0.10;;;16.00;99.90;;;;;;5070095;28;20049;-71
2023/08/18 03:33:33;;;;;;;1.08;0.30;;;16.00;99.90;;;;;;5075898;28;20446;-71
2023/08/18 03:35:59;;;;;;;0.80;0.15;;;16.00;99.90;;;;;;5072197;28;20068;-71
2023/08/18 03:38:26;;;;;;;0.85;0.20;;;16.00;99.90;;;;;;5073386;28;20134;-71
2023/08/18 03:41:03;;;;;;;0.25;0.10;;;16.00;99.90;;;;;;5071794;28;20455;-71
2023/08/18 03:43:29;;;;;;;0.10;0.00;;;16.00;99.90;;;;;;5073608;28;20044;-71
2023/08/18 03:46:01;;;;;;;1.38;0.50;;;16.00;99.90;;;;;;5075339;28;20051;-71
2023/08/18 03:48:27;;;;;;;0.93;0.30;;;16.00;99.90;;;;;;5066652;28;20067;-71
2023/08/18 03:50:53;;;;;;;0.45;0.20;;;16.00;99.90;;;;;;5073734;28;20058;-71
2023/08/18 03:53:22;;;;;;;0.13;0.05;;;16.00;99.90;;;;;;5072002;28;20040;-71
2023/08/18 03:55:52;;;;;;;0.32;0.10;;;16.00;99.90;;;;;;5077819;28;20111;-71
2023/08/18 03:58:18;;;;;;;0.65;0.38;;;16.00;99.90;;;;;;5072692;28;20108;-71
2023/08/18 04:00:43;;;;;;;1.45;0.28;;;16.00;99.90;;;;;;5069179;28;20048;-70
2023/08/18 04:03:09;;;;;;;0.10;0.10;;;16.00;99.90;;;;;;5072967;28;20123;-71
2023/08/18 04:05:36;;;;;;;0.38;0.10;;;16.00;99.90;;;;;;5055845;28;20033;-71
2023/08/18 04:08:02;;;;;;;0.50;0.20;;;16.00;99.90;;;;;;5071165;28;20386;-71
2023/08/18 04:10:27;;;;;;;0.93;0.20;;;16.00;99.90;;;;;;5073037;28;20132;-71
2023/08/18 04:12:53;;;;;;;3.53;0.30;;;16.00;99.90;;;;;;5070246;28;20176;-71
2023/08/18 04:15:19;;;;;;;0.63;0.35;;;16.00;99.90;;;;;;5076752;28;20052;-71
2023/08/18 04:17:45;;;;;;;0.75;0.30;;;16.00;99.90;;;;;;5074645;28;20047;-71
2023/08/18 04:20:10;;;;;;;0.80;0.20;;;16.00;99.90;;;;;;5078259;28;20055;-71
2023/08/18 04:22:37;;;;;;;0.13;0.05;;;16.00;99.90;;;;;;5076060;28;20033;-71
2023/08/18 04:25:03;;;;;;;0.50;0.10;;;16.00;99.90;;;;;;5076633;28;20512;-71
2023/08/18 04:27:29;;;;;;;0.25;0.10;;;16.00;99.90;;;;;;5076033;28;20047;-71
2023/08/18 04:29:54;;;;;;;0.10;0.08;;;16.00;99.90;;;;;;5075311;28;20032;-71
2023/08/18 04:32:20;;;;;;;0.17;0.10;;;16.00;99.90;;;;;;5067372;28;20496;-71
2023/08/18 04:34:46;;;;;;;0.95;0.40;;;16.00;99.90;;;;;;5075286;28;20082;-71
2023/08/18 04:37:11;;;;;;;0.88;0.30;;;16.00;99.90;;;;;;5072934;28;20500;-71
2023/08/18 04:39:37;;;;;;;0.30;0.10;;;16.00;99.90;;;;;;5075417;28;20044;-71
2023/08/18 04:42:03;;;;;;;1.25;0.20;;;16.10;99.90;;;;;;5070873;28;20040;-71
2023/08/18 04:44:28;;;;;;;0.17;0.15;;;16.10;99.90;;;;;;5059695;28;20477;-71
2023/08/18 04:46:54;;;;;;;0.20;0.20;;;16.00;99.90;;;;;;5057936;28;20040;-71
2023/08/18 04:49:20;;;;;;;0.63;0.30;;;16.00;99.90;;;;;;5076720;28;20064;-71
2023/08/18 04:51:45;;;;;;;0.85;0.20;;;16.00;99.90;;;;;;5075391;28;20539;-71
2023/08/18 04:54:11;;;;;;;0.10;0.03;;;16.10;99.90;;;;;;5074380;28;20511;-71
2023/08/18 04:56:38;;;;;;;0.22;0.00;;;16.10;99.90;;;;;;5078298;28;20040;-71
2023/08/18 04:59:03;;;;;;;1.75;0.22;;;16.00;99.90;;;;;;5072424;28;20059;-71
2023/08/18 05:01:29;;;;;;;0.32;0.13;;;16.10;99.90;;;;;;5075156;28;20048;-71
2023/08/18 05:03:57;;;;;;;0.90;0.47;;;16.10;99.90;;;;;;5071117;28;20063;-71
2023/08/18 05:06:22;;;;;;;0.38;0.28;;;16.10;99.90;;;;;;5076183;28;20429;-71
2023/08/18 05:08:48;;;;;;;1.08;0.30;;;16.10;99.90;;;;;;5065412;28;20043;-71
2023/08/18 05:11:14;;;;;;;0.20;0.10;;;16.10;99.90;;;;;;5072722;28;20040;-71
2023/08/18 05:13:42;;;;;;;0.00;0.00;;;16.10;99.90;;;;;;5071725;28;20049;-70
2023/08/18 05:16:07;;;;;;;1.10;0.30;;;16.10;99.90;;;;;;5069079;28;20255;-71
2023/08/18 05:18:33;;;;;;;0.10;0.10;;;16.10;99.90;;;;;;5055262;28;20527;-71
2023/08/18 05:21:00;;;;;;;0.47;0.20;;;16.20;99.90;;;;;;5093059;28;20120;-71
2023/08/18 05:23:27;;;;;;;1.75;0.20;;;16.20;99.90;;;;;;5072629;28;20114;-71
2023/08/18 05:25:54;;;;;;;0.08;0.08;;;16.20;99.90;;;;;;5071923;28;20614;-71
2023/08/18 05:28:21;;;;;;;0.75;0.35;;;16.20;99.90;;;;;;5072808;28;20040;-71
2023/08/18 05:30:48;;;;;;;0.60;0.20;;;16.20;99.90;;;;;;5074803;28;20101;-71
2023/08/18 05:33:14;;;;;;;0.68;0.28;;;16.20;99.90;;;;;;5093910;28;20093;-71
2023/08/18 05:35:39;;;;;;;1.23;0.30;;;16.30;99.90;;;;;;5057612;28;20068;-71
2023/08/18 05:38:11;;;;;;;0.57;0.20;;;16.30;99.90;;;;;;5068575;28;20474;-71
2023/08/18 05:40:48;;;;;;;0.20;0.10;;;16.30;99.90;;;;;;5074007;28;20045;-70
2023/08/18 05:43:15;;;;;;;0.10;0.10;;;16.20;99.90;;;;;;5067859;28;20037;-71
2023/08/18 05:45:42;;;;;;;0.25;0.20;;;16.30;99.90;;;;;;5074971;28;20571;-71
2023/08/18 05:48:08;;;;;;;0.60;0.30;;;16.30;99.90;;;;;;5073807;28;20136;-71
2023/08/18 05:50:34;;;;;;;0.90;0.50;;;16.30;99.90;;;;;;5068391;28;20348;-71
2023/08/18 05:53:04;;;;;;;1.27;0.63;;;16.30;99.90;;;;;;5072080;28;20094;-71
2023/08/18 05:55:30;;;;;;;0.52;0.10;;;16.20;99.90;;;;;;5074613;28;20063;-70
2023/08/18 05:58:02;;;;;;;0.40;0.10;;;16.30;99.90;;;;;;5073741;28;20453;-71
2023/08/18 06:00:29;;;;;;;0.65;0.30;;;16.30;99.90;;;;;;5070766;28;20072;-71
2023/08/18 06:02:56;;;;;;;0.20;0.10;;;16.30;99.90;;;;;;5069493;28;20308;-71
2023/08/18 06:05:30;;;;;;;1.08;0.20;;;16.30;99.90;;;;;;5072437;28;20182;-71
2023/08/18 06:07:56;;;;;;;0.82;0.30;;;16.30;99.90;;;;;;5056715;28;20492;-71
2023/08/18 06:10:22;;;;;;;0.22;0.15;;;16.40;99.90;;;;;;5093238;28;20040;-71
2023/08/18 06:12:49;;;;;;;1.38;0.28;;;16.40;99.90;;;;;;5074190;28;20048;-71
2023/08/18 06:15:16;;;;;;;0.35;0.20;;;16.40;99.90;;;;;;5074220;28;20562;-70
2023/08/18 06:17:42;;;;;;;1.17;0.68;;;16.30;99.90;;;;;;5074866;28;20047;-71
2023/08/18 06:20:08;;;;;;;0.60;0.32;;;16.40;99.90;;;;;;5071510;28;20036;-71
2023/08/18 06:22:34;;;;;;;2.28;0.45;;;16.40;99.90;;;;;;5072486;28;20041;-71
2023/08/18 06:24:59;;;;;;;0.30;0.10;;;16.30;99.90;;;;;;5070937;28;20044;-71
2023/08/18 06:27:25;;;;;;;0.17;0.10;;;16.30;99.90;;;;;;5070947;28;20043;-71
2023/08/18 06:29:51;;;;;;;2.08;0.40;;;16.40;99.90;;;;;;5068637;28;20728;-71
2023/08/18 06:32:18;;;;;;;1.33;0.20;;;16.40;99.90;;;;;;5070579;28;20106;-71
2023/08/18 06:34:44;;;;;;;2.97;0.75;;;16.40;99.90;;;;;;5071785;28;20044;-71
2023/08/18 06:37:10;;;;;;;1.08;0.50;;;16.40;99.90;;;;;;5067326;28;20029;-71
2023/08/18 06:39:35;;;;;;;1.15;0.65;;;16.50;99.90;;;;;;5069587;28;20447;-71
2023/08/18 06:42:01;;;;;;;2.40;1.08;;;16.40;99.90;;;;;;5070409;28;20677;-70
2023/08/18 06:44:27;;;;;;;1.10;0.52;;;16.50;99.90;;;;;;5069723;28;20064;-71
2023/08/18 06:46:53;;;;;;;1.85;0.70;;;16.50;99.90;;;;;;5067808;28;20381;-71
2023/08/18 06:49:18;;;;;;;1.20;0.73;;;16.50;99.90;;;;;;5066235;28;20028;-72
2023/08/18 06:51:44;;;;;;;0.35;0.30;;;16.50;99.90;;;;;;5068867;28;20040;-71
2023/08/18 06:54:10;;;;;;;2.17;0.73;;;16.50;99.90;;;;;;5061035;28;20124;-71
2023/08/18 06:56:35;;;;;;;1.73;0.52;;;16.50;99.90;;;;;;5066483;28;20052;-71
2023/08/18 06:59:01;;;;;;;2.38;0.40;;;16.60;99.90;;;;;;5069634;28;20037;-71
2023/08/18 07:01:27;;;;;;;1.25;0.50;;;16.60;99.90;;;;;;5063889;28;20067;-71
2023/08/18 07:03:53;;;;;;;1.65;0.60;;;16.60;99.90;;;;;;5069785;28;20044;-71
2023/08/18 07:06:20;;;;;;;0.70;0.57;;;16.70;99.90;;;;;;5070362;28;20511;-71
2023/08/18 07:08:46;;;;;;;1.60;0.77;;;16.70;99.90;;;;;;5069100;28;20060;-70
2023/08/18 07:11:12;;;;;;;1.75;0.70;;;16.80;99.90;;;;;;5065246;28;20037;-71
2023/08/18 07:13:37;;;;;;;1.45;0.80;;;16.80;99.90;;;;;;5067320;28;20082;-71
2023/08/18 07:16:04;;;;;;;1.60;0.82;;;16.80;99.90;;;;;;5069962;28;20082;-71
2023/08/18 07:18:29;;;;;;;1.55;0.82;;;16.80;99.90;;;;;;5069974;28;20488;-71
2023/08/18 07:20:57;;;;;;;0.98;0.50;;;16.80;99.90;;;;;;5070716;28;20036;-71
2023/08/18 07:23:24;;;;;;;0.60;0.47;;;16.80;99.90;;;;;;5068826;28;20059;-70
2023/08/18 07:25:50;;;;;;;0.98;0.88;;;16.90;99.90;;;;;;5096703;28;20044;-71
2023/08/18 07:28:16;;;;;;;2.05;0.65;;;16.90;99.90;;;;;;5071330;28;20072;-70
2023/08/18 07:30:42;;;;;;;1.17;0.52;;;16.90;99.90;;;;;;5067334;28;20613;-70
2023/08/18 07:33:08;;;;;;;1.38;0.60;;;16.90;99.90;;;;;;5068305;28;20045;-71
2023/08/18 07:35:34;;;;;;;1.55;0.90;;;16.90;99.90;;;;;;5069869;28;20570;-70
2023/08/18 07:38:00;;;;;;;2.67;1.42;;;16.90;99.90;;;;;;5069082;28;20047;-70
2023/08/18 07:40:27;;;;;;;1.27;0.40;;;16.90;99.90;;;;;;5067473;28;20028;-70
2023/08/18 07:42:54;;;;;;;0.65;0.50;;;16.90;99.90;;;;;;5070431;28;20063;-70
2023/08/18 07:45:20;;;;;;;0.95;0.63;;;16.90;99.90;;;;;;5070647;28;20074;-70
2023/08/18 07:47:46;;;;;;;0.70;0.65;;;17.00;99.90;;;;;;5075270;28;20044;-70
2023/08/18 07:50:13;;;;;;;0.65;0.40;;;17.00;99.90;;;;;;5072488;28;20537;-70
2023/08/18 07:52:40;;;;;;;2.10;0.57;;;16.90;99.90;;;;;;5076269;28;20047;-71
2023/08/18 07:55:07;;;;;;;1.05;0.32;;;17.00;99.90;;;;;;5075007;28;20057;-71
2023/08/18 07:57:34;;;;;;;0.40;0.38;;;17.10;99.90;;;;;;5072987;28;20487;-70
2023/08/18 08:00:07;;;;;;;2.45;0.88;;;17.10;99.90;;;;;;5077664;28;20482;-70
2023/08/18 08:02:32;;;;;;;1.10;0.52;;;17.30;99.90;;;;;;5075178;28;20119;-70
2023/08/18 08:04:58;;;;;;;2.47;0.98;;;17.30;99.90;;;;;;5075744;28;20063;-72
2023/08/18 08:07:24;;;;;;;1.25;0.80;;;17.40;99.90;;;;;;5075969;28;20450;-71
2023/08/18 08:09:52;;;;;;;2.40;0.65;;;17.40;99.90;;;;;;5075712;28;20060;-70
2023/08/18 08:12:17;;;;;;;1.10;0.77;;;17.40;99.90;;;;;;5073581;28;20471;-71
2023/08/18 08:14:43;;;;;;;3.88;0.70;;;17.50;99.90;;;;;;5075416;28;20043;-71
2023/08/18 08:17:09;;;;;;;1.75;0.63;;;17.60;99.90;;;;;;5075228;28;20416;-71
2023/08/18 08:19:35;;;;;;;1.95;0.57;;;17.60;99.90;;;;;;5073393;28;20032;-71
2023/08/18 08:22:03;;;;;;;1.40;0.45;;;17.70;99.90;;;;;;5076858;28;20036;-70
2023/08/18 08:24:29;;;;;;;1.83;0.73;;;17.70;99.90;;;;;;5055350;28;20041;-71
2023/08/18 08:26:55;;;;;;;1.35;0.60;;;17.70;99.90;;;;;;5075837;28;20044;-71
2023/08/18 08:29:20;;;;;;;1.08;0.47;;;17.70;99.90;;;;;;5075104;28;20037;-71
2023/08/18 08:31:46;;;;;;;0.93;0.68;;;17.70;99.90;;;;;;5059209;28;20025;-72
2023/08/18 08:34:12;;;;;;;1.92;0.60;;;17.70;99.90;;;;;;5077556;28;20048;-71
2023/08/18 08:36:37;;;;;;;2.75;0.88;;;17.80;99.90;;;;;;5078005;28;20500;-71
2023/08/18 08:39:04;;;;;;;0.60;0.40;;;17.80;99.90;;;;;;5062206;28;20127;-71
2023/08/18 08:41:30;;;;;;;2.13;0.60;;;17.80;99.90;;;;;;5059836;28;20118;-72
2023/08/18 08:43:55;;;;;;;1.08;0.22;;;17.90;99.90;;;;;;5078550;28;20065;-71
2023/08/18 08:46:22;;;;;;;1.10;0.43;;;18.00;99.90;;;;;;5076282;28;20040;-72
2023/08/18 08:48:51;;;;;;;0.73;0.60;;;18.10;99.90;;;;;;5071213;28;20030;-71
2023/08/18 08:51:20;;;;;;;1.20;0.45;;;18.20;99.90;;;;;;5076456;28;20550;-71
2023/08/18 08:53:47;;;;;;;1.92;0.95;;;18.30;99.90;;;;;;5076787;28;20040;-71
2023/08/18 08:56:16;;;;;;;2.47;1.02;;;18.30;99.90;;;;;;5077242;28;20523;-72
2023/08/18 08:58:42;;;;;;;1.30;0.50;;;18.30;99.90;;;;;;5076156;28;20067;-71
2023/08/18 09:01:09;;;;;;;1.33;0.50;;;18.30;99.90;;;;;;5070877;28;20048;-71
2023/08/18 09:03:35;;;;;;;1.90;0.80;;;18.40;99.90;;;;;;5075051;28;20066;-69
2023/08/18 09:06:00;;;;;;;2.35;0.80;;;18.50;99.90;;;;;;5074336;28;20041;-71
2023/08/18 09:08:26;;;;;;;1.15;0.30;;;18.50;99.90;;;;;;5075089;28;20035;-71
2023/08/18 09:10:53;;;;;;;1.45;0.60;;;18.50;99.90;;;;;;5073883;28;20048;-72
2023/08/18 09:13:18;;;;;;;2.58;1.17;;;18.60;99.90;;;;;;5073764;28;20036;-71
2023/08/18 09:15:44;;;;;;;1.00;0.50;;;18.70;99.90;;;;;;5075341;28;20067;-71
2023/08/18 09:18:17;;;;;;;1.95;0.75;;;18.80;99.90;;;;;;5051420;28;20102;-71
2023/08/18 09:20:44;;;;;;;1.27;0.68;;;18.80;99.90;;;;;;5070987;28;20104;-71
2023/08/18 09:23:10;;;;;;;2.35;0.40;;;18.90;99.90;;;;;;5075716;28;20040;-71
2023/08/18 09:25:36;;;;;;;0.88;0.70;;;19.00;99.90;;;;;;5075408;28;20039;-71
2023/08/18 09:28:06;;;;;;;2.08;0.73;;;19.10;99.90;;;;;;5074446;28;20044;-71
2023/08/18 09:30:32;;;;;;;3.60;1.00;;;19.20;99.90;;;;;;5070740;28;20052;-71
2023/08/18 09:33:02;;;;;;;2.38;0.88;;;19.20;99.90;;;;;;5074869;28;20032;-71
2023/08/18 09:35:33;;;;;;;1.95;0.98;;;19.20;99.90;;;;;;5072047;28;20040;-71
2023/08/18 09:37:59;;;;;;;1.25;0.70;;;19.20;99.90;;;;;;5074926;28;20377;-71
2023/08/18 09:40:26;;;;;;;1.73;0.77;;;19.20;99.90;;;;;;5075717;28;20104;-71
2023/08/18 09:42:51;;;;;;;3.17;1.25;;;19.30;99.90;;;;;;5073490;28;20036;-71
2023/08/18 09:45:22;;;;;;;4.95;0.95;;;19.30;99.90;;;;;;5074852;28;20495;-71
2023/08/18 09:47:52;;;;;;;1.13;0.60;;;19.30;99.90;;;;;;5071434;28;20044;-71
2023/08/18 09:50:20;;;;;;;2.40;0.95;;;19.30;99.90;;;;;;5069366;28;20111;-71
2023/08/18 09:52:50;;;;;;;1.00;0.55;;;19.30;99.90;;;;;;5069128;28;20097;-72
2023/08/18 09:55:17;;;;;;;1.90;0.70;;;19.30;99.90;;;;;;5067991;28;20583;-71
2023/08/18 09:57:55;;;;;;;0.98;0.60;;;19.40;99.90;;;;;;5072450;28;20031;-72
2023/08/18 10:00:21;;;;;;;1.52;0.50;;;19.50;99.90;;;;;;5068927;28;20032;-71
2023/08/18 10:02:52;;;;;;;2.45;0.55;;;19.50;99.90;;;;;;5070359;28;20040;-71
2023/08/18 10:05:19;;;;;;;1.35;0.63;;;19.50;99.90;;;;;;5066609;28;20059;-70
2023/08/18 10:07:45;;;;;;;1.58;0.52;;;19.60;99.90;;;;;;5070244;28;20123;-71
2023/08/18 10:10:12;;;;;;;1.98;0.75;;;19.60;99.90;;;;;;5071743;28;20049;-72
2023/08/18 10:12:39;;;;;;;2.42;0.93;;;19.70;99.90;;;;;;5069189;28;20052;-71
2023/08/18 10:15:06;;;;;;;0.60;0.55;;;19.70;99.90;;;;;;5069098;28;20140;-71
2023/08/18 10:17:31;;;;;;;1.38;0.57;;;19.80;99.90;;;;;;5068068;28;20082;-71
2023/08/18 10:20:00;;;;;;;1.33;0.73;;;19.80;99.90;;;;;;5070524;28;20152;-71
2023/08/18 10:22:30;;;;;;;2.80;0.98;;;19.90;99.90;;;;;;5070380;28;20040;-70
2023/08/18 10:24:56;;;;;;;2.05;0.70;;;19.90;99.90;;;;;;5068413;28;20048;-71
2023/08/18 10:27:28;;;;;;;1.60;0.90;;;20.00;99.90;;;;;;5071878;28;20048;-72
2023/08/18 10:30:00;;;;;;;0.35;0.20;;;20.00;99.90;;;;;;5068267;28;20098;-72
2023/08/18 10:32:26;;;;;;;1.75;0.75;;;20.00;99.90;;;;;;5065805;28;20075;-73
2023/08/18 10:34:52;;;;;;;0.65;0.40;;;20.10;99.90;;;;;;5071420;28;20044;-72
2023/08/18 10:37:22;;;;;;;1.52;0.60;;;20.20;99.90;;;;;;5065554;28;20040;-72
2023/08/18 10:39:50;;;;;;;0.98;0.60;;;20.30;99.90;;;;;;5068227;28;20037;-72
2023/08/18 10:42:16;;;;;;;1.35;0.95;;;20.40;99.90;;;;;;5070805;28;20037;-72
2023/08/18 10:45:00;;;;;;;3.13;0.75;;;20.40;99.90;;;;;;5056440;28;20074;-72
2023/08/18 10:47:33;;;;;;;1.90;0.75;;;20.40;99.90;;;;;;5073247;28;20040;-72
2023/08/18 10:50:00;;;;;;;1.13;0.52;;;20.40;99.90;;;;;;5072167;28;20132;-72
2023/08/18 10:52:30;;;;;;;1.83;0.50;;;20.40;99.90;;;;;;5071334;28;20493;-73
2023/08/18 10:54:56;;;;;;;3.53;0.90;;;20.50;99.90;;;;;;5070161;28;20067;-72
2023/08/18 10:57:23;;;;;;;1.73;1.08;;;20.60;99.90;;;;;;5070068;28;20492;-72
2023/08/18 10:59:49;;;;;;;1.58;0.70;;;20.60;99.90;;;;;;5069655;28;20028;-72
2023/08/18 11:02:16;;;;;;;1.17;0.68;;;20.60;99.90;;;;;;5069553;28;20033;-72
2023/08/18 11:04:42;;;;;;;1.67;0.68;;;20.70;99.90;;;;;;5078016;28;20036;-72
2023/08/18 11:07:08;;;;;;;1.88;0.82;;;20.70;99.90;;;;;;5076640;28;20041;-72
2023/08/18 11:09:36;;;;;;;2.28;0.75;;;20.80;99.90;;;;;;5055970;28;20037;-73
2023/08/18 11:12:03;;;;;;;1.13;0.70;;;20.90;99.90;;;;;;5066581;28;20036;-72
2023/08/18 11:14:29;;;;;;;1.38;0.68;;;21.00;99.90;;;;;;5075213;28;20058;-72
2023/08/18 11:16:55;;;;;;;1.58;0.88;;;21.00;99.90;;;;;;5071555;28;20047;-71
2023/08/18 11:19:21;;;;;;;2.53;0.70;;;21.20;99.90;;;;;;5071404;28;20048;-72
2023/08/18 11:21:47;;;;;;;0.90;0.60;;;21.30;99.90;;;;;;5068527;28;20048;-72
2023/08/18 11:24:13;;;;;;;1.42;0.70;;;21.40;99.90;;;;;;5073132;28;20415;-72
2023/08/18 11:26:39;;;;;;;2.78;1.02;;;21.60;99.90;;;;;;5070878;28;20153;-72
2023/08/18 11:29:10;;;;;;;0.65;0.45;;;21.70;99.90;;;;;;5072246;28;20044;-72
2023/08/18 11:31:36;;;;;;;1.42;0.68;;;21.80;99.90;;;;;;5070722;28;20076;-72
2023/08/18 11:34:02;;;;;;;2.15;0.50;;;22.10;99.90;;;;;;5073986;28;20048;-73
2023/08/18 11:36:32;;;;;;;2.22;0.70;;;22.40;99.90;;;;;;5073915;28;20074;-72
2023/08/18 11:39:08;;;;;;;1.38;0.50;;;22.80;99.90;;;;;;5076085;28;20035;-72
2023/08/18 11:41:42;;;;;;;2.00;0.57;;;22.80;99.90;;;;;;5075428;28;20040;-72
2023/08/18 11:44:09;;;;;;;0.73;0.60;;;22.90;99.90;;;;;;5073841;28;20055;-72
2023/08/18 11:46:39;;;;;;;1.23;0.73;;;23.10;99.90;;;;;;5073172;28;20041;-72
2023/08/18 11:49:12;;;;;;;2.95;0.70;;;23.40;99.90;;;;;;5071579;28;20053;-72
2023/08/18 11:51:53;;;;;;;2.58;1.15;;;23.40;99.90;;;;;;5069423;28;20032;-71
2023/08/18 11:54:19;;;;;;;1.73;0.82;;;23.30;99.90;;;;;;5069226;28;20044;-72
2023/08/18 11:56:44;;;;;;;1.10;0.45;;;23.30;99.90;;;;;;5070503;28;20198;-72
2023/08/18 11:59:21;;;;;;;1.42;0.95;;;23.30;99.90;;;;;;5059108;28;20040;-72
2023/08/18 12:01:47;;;;;;;0.40;0.28;;;23.50;99.90;;;;;;5068205;28;20040;-72
2023/08/18 12:04:13;;;;;;;2.65;0.88;;;23.60;99.90;;;;;;5074205;28;20044;-73
2023/08/18 12:06:39;;;;;;;0.73;0.50;;;23.90;99.90;;;;;;5076970;28;20088;-72
2023/08/18 12:09:12;;;;;;;1.20;0.80;;;24.00;99.90;;;;;;5079334;28;20045;-72
2023/08/18 12:11:38;;;;;;;1.88;1.05;;;24.20;99.90;;;;;;5071952;28;20096;-73
2023/08/18 12:14:05;;;;;;;1.33;0.70;;;24.80;99.90;;;;;;5072496;28;20516;-72
2023/08/18 12:16:31;;;;;;;1.33;0.75;;;24.90;99.90;;;;;;5071851;28;20122;-72
2023/08/18 12:18:56;;;;;;;1.55;0.95;;;24.70;99.90;;;;;;5070053;28;20123;-72
2023/08/18 12:21:22;;;;;;;1.45;0.95;;;24.50;99.90;;;;;;5069449;28;20120;-72
2023/08/18 12:23:48;;;;;;;0.60;0.47;;;24.40;99.90;;;;;;5067121;28;20029;-72
2023/08/18 12:26:17;;;;;;;4.85;0.60;;;24.70;99.90;;;;;;5069155;28;20641;-73
2023/08/18 12:28:43;;;;;;;1.45;0.57;;;25.30;99.90;;;;;;5068979;28;20043;-72
2023/08/18 12:31:09;;;;;;;1.50;0.90;;;26.10;99.90;;;;;;5066876;28;20431;-72
2023/08/18 12:33:35;;;;;;;0.70;0.40;;;26.70;99.90;;;;;;5069998;28;20502;-73
2023/08/18 12:36:02;;;;;;;2.00;0.80;;;27.00;99.90;;;;;;5072379;28;20063;-73
2023/08/18 12:38:28;;;;;;;0.88;0.57;;;27.30;99.90;;;;;;5074248;28;20072;-73
2023/08/18 12:40:54;;;;;;;1.70;0.73;;;27.40;99.90;;;;;;5073657;28;20067;-73
2023/08/18 12:43:20;;;;;;;1.58;0.98;;;27.50;99.90;;;;;;5053940;28;20271;-74
2023/08/18 12:45:45;;;;;;;1.55;0.82;;;27.20;99.90;;;;;;5069644;28;20063;-72